sensor_id;sensor_type;location;lat;lon;timestamp;pressure;altitude;pressure_sealevel;temperature;humidity
41947;BME280;27638;42.184;24.848;2022-12-07T00:01:11;100039.78;;;9.55;86.29
41947;BME280;27638;42.184;24.848;2022-12-07T00:03:37;100044.78;;;9.58;86.25
41947;BME280;27638;42.184;24.848;2022-12-07T00:06:03;100048.91;;;9.43;87.04
41947;BME280;27638;42.184;24.848;2022-12-07T00:08:29;100048.97;;;9.24;86.95
41947;BME280;27638;42.184;24.848;2022-12-07T00:10:54;100049.59;;;9.08;88.42
41947;BME280;27638;42.184;24.848;2022-12-07T00:13:20;100041.81;;;9.07;88.16
41947;BME280;27638;42.184;24.848;2022-12-07T00:15:45;100049.00;;;9.14;88.49
41947;BME280;27638;42.184;24.848;2022-12-07T00:18:10;100047.63;;;9.10;88.16
41947;BME280;27638;42.184;24.848;2022-12-07T00:20:36;100043.75;;;9.05;88.11
41947;BME280;27638;42.184;24.848;2022-12-07T00:23:01;100046.22;;;9.16;87.94
41947;BME280;27638;42.184;24.848;2022-12-07T00:25:26;100042.84;;;9.23;86.97
41947;BME280;27638;42.184;24.848;2022-12-07T00:27:52;100046.22;;;9.16;87.27
41947;BME280;27638;42.184;24.848;2022-12-07T00:30:18;100046.50;;;9.13;87.42
41947;BME280;27638;42.184;24.848;2022-12-07T00:32:43;100049.94;;;9.23;86.88
41947;BME280;27638;42.184;24.848;2022-12-07T00:35:08;100051.31;;;9.27;86.41
41947;BME280;27638;42.184;24.848;2022-12-07T00:37:34;100057.81;;;9.33;86.40
41947;BME280;27638;42.184;24.848;2022-12-07T00:39:59;100055.63;;;9.28;86.20
41947;BME280;27638;42.184;24.848;2022-12-07T00:42:24;100050.03;;;9.31;86.09
41947;BME280;27638;42.184;24.848;2022-12-07T00:44:49;100046.72;;;9.29;85.83
41947;BME280;27638;42.184;24.848;2022-12-07T00:47:15;100039.53;;;9.21;86.16
41947;BME280;27638;42.184;24.848;2022-12-07T00:49:40;100038.84;;;9.19;86.40
41947;BME280;27638;42.184;24.848;2022-12-07T00:52:05;100042.88;;;9.14;87.19
41947;BME280;27638;42.184;24.848;2022-12-07T00:54:30;100043.44;;;9.17;86.81
41947;BME280;27638;42.184;24.848;2022-12-07T00:56:56;100041.50;;;9.10;87.22
41947;BME280;27638;42.184;24.848;2022-12-07T00:59:21;100046.69;;;9.02;87.94
41947;BME280;27638;42.184;24.848;2022-12-07T01:01:46;100034.31;;;9.02;88.41
41947;BME280;27638;42.184;24.848;2022-12-07T01:04:11;100043.50;;;8.98;88.51
41947;BME280;27638;42.184;24.848;2022-12-07T01:06:37;100044.59;;;9.05;89.09
41947;BME280;27638;42.184;24.848;2022-12-07T01:09:03;99999.50;;;8.79;88.37
41947;BME280;27638;42.184;24.848;2022-12-07T01:11:29;100036.66;;;9.05;88.61
41947;BME280;27638;42.184;24.848;2022-12-07T01:13:56;100034.75;;;8.98;88.94
41947;BME280;27638;42.184;24.848;2022-12-07T01:16:22;100039.59;;;9.02;88.84
41947;BME280;27638;42.184;24.848;2022-12-07T01:18:48;100027.09;;;9.04;89.15
41947;BME280;27638;42.184;24.848;2022-12-07T01:21:15;100035.44;;;9.00;88.86
41947;BME280;27638;42.184;24.848;2022-12-07T01:23:41;100029.28;;;9.09;88.51
41947;BME280;27638;42.184;24.848;2022-12-07T01:26:07;100035.47;;;9.27;87.75
41947;BME280;27638;42.184;24.848;2022-12-07T01:28:33;100019.75;;;9.25;86.95
41947;BME280;27638;42.184;24.848;2022-12-07T01:31:03;100020.44;;;9.27;87.46
41947;BME280;27638;42.184;24.848;2022-12-07T01:33:29;100015.53;;;9.42;87.04
41947;BME280;27638;42.184;24.848;2022-12-07T01:35:59;100014.16;;;9.38;86.88
41947;BME280;27638;42.184;24.848;2022-12-07T01:38:25;100012.75;;;9.34;87.19
41947;BME280;27638;42.184;24.848;2022-12-07T01:40:54;100007.59;;;9.42;86.55
41947;BME280;27638;42.184;24.848;2022-12-07T01:43:19;100007.38;;;9.53;86.27
41947;BME280;27638;42.184;24.848;2022-12-07T01:45:45;100004.22;;;9.50;86.27
41947;BME280;27638;42.184;24.848;2022-12-07T01:48:11;100004.16;;;9.59;85.44
41947;BME280;27638;42.184;24.848;2022-12-07T01:50:38;100004.28;;;9.58;85.28
41947;BME280;27638;42.184;24.848;2022-12-07T01:53:05;99999.53;;;9.62;84.98
41947;BME280;27638;42.184;24.848;2022-12-07T01:55:31;99996.28;;;9.50;85.41
41947;BME280;27638;42.184;24.848;2022-12-07T01:57:57;99993.53;;;9.42;85.52
41947;BME280;27638;42.184;24.848;2022-12-07T02:00:22;100005.66;;;9.35;86.32
41947;BME280;27638;42.184;24.848;2022-12-07T02:02:55;100005.66;;;9.35;86.26
41947;BME280;27638;42.184;24.848;2022-12-07T02:05:22;100002.03;;;9.36;86.46
41947;BME280;27638;42.184;24.848;2022-12-07T02:07:49;100002.44;;;9.41;86.16
41947;BME280;27638;42.184;24.848;2022-12-07T02:10:20;100002.44;;;9.41;85.99
41947;BME280;27638;42.184;24.848;2022-12-07T02:12:47;99996.34;;;9.40;85.72
41947;BME280;27638;42.184;24.848;2022-12-07T02:15:13;99992.28;;;9.36;86.06
41947;BME280;27638;42.184;24.848;2022-12-07T02:18:22;99994.41;;;9.33;86.33
41947;BME280;27638;42.184;24.848;2022-12-07T02:20:33;99994.09;;;9.36;85.60
41947;BME280;27638;42.184;24.848;2022-12-07T02:28:22;99978.69;;;9.31;86.72
41947;BME280;27638;42.184;24.848;2022-12-07T02:30:53;99982.75;;;9.25;87.24
41947;BME280;27638;42.184;24.848;2022-12-07T02:33:28;99975.75;;;9.34;86.98
41947;BME280;27638;42.184;24.848;2022-12-07T02:36:06;99973.75;;;9.46;86.39
41947;BME280;27638;42.184;24.848;2022-12-07T02:38:35;99976.44;;;9.36;86.36
41947;BME280;27638;42.184;24.848;2022-12-07T02:41:04;99966.59;;;9.38;86.25
41947;BME280;27638;42.184;24.848;2022-12-07T02:43:34;99967.66;;;9.45;85.32
41947;BME280;27638;42.184;24.848;2022-12-07T02:46:05;99968.97;;;9.32;86.37
41947;BME280;27638;42.184;24.848;2022-12-07T02:48:33;99976.06;;;9.31;86.79
41947;BME280;27638;42.184;24.848;2022-12-07T02:50:58;99972.69;;;9.39;86.07
41947;BME280;27638;42.184;24.848;2022-12-07T02:56:02;99963.59;;;9.23;86.24
41947;BME280;27638;42.184;24.848;2022-12-07T03:01:18;99957.13;;;9.08;87.08
41947;BME280;27638;42.184;24.848;2022-12-07T03:03:46;99962.72;;;9.05;87.24
41947;BME280;27638;42.184;24.848;2022-12-07T03:06:16;99952.69;;;9.09;86.97
41947;BME280;27638;42.184;24.848;2022-12-07T03:08:51;99955.56;;;9.15;86.22
41947;BME280;27638;42.184;24.848;2022-12-07T03:16:35;99960.31;;;8.84;87.23
41947;BME280;27638;42.184;24.848;2022-12-07T03:19:10;99963.63;;;8.86;87.55
41947;BME280;27638;42.184;24.848;2022-12-07T03:21:40;99950.81;;;8.91;87.46
41947;BME280;27638;42.184;24.848;2022-12-07T03:24:08;99958.84;;;9.00;87.38
41947;BME280;27638;42.184;24.848;2022-12-07T03:26:35;99965.50;;;9.04;87.59
41947;BME280;27638;42.184;24.848;2022-12-07T03:29:04;99959.34;;;9.13;87.14
41947;BME280;27638;42.184;24.848;2022-12-07T03:31:31;99963.53;;;9.06;87.45
41947;BME280;27638;42.184;24.848;2022-12-07T03:39:11;99967.06;;;9.24;87.07
41947;BME280;27638;42.184;24.848;2022-12-07T03:41:38;99959.47;;;9.11;87.38
41947;BME280;27638;42.184;24.848;2022-12-07T03:44:04;99965.25;;;9.24;87.23
41947;BME280;27638;42.184;24.848;2022-12-07T03:49:06;99972.34;;;9.24;86.85
41947;BME280;27638;42.184;24.848;2022-12-07T03:51:39;99961.31;;;9.28;86.32
41947;BME280;27638;42.184;24.848;2022-12-07T03:56:50;99969.16;;;9.20;86.63
41947;BME280;27638;42.184;24.848;2022-12-07T03:59:16;99963.66;;;9.32;86.41
41947;BME280;27638;42.184;24.848;2022-12-07T04:01:45;99965.59;;;9.39;84.97
41947;BME280;27638;42.184;24.848;2022-12-07T04:04:16;99954.38;;;9.27;85.63
41947;BME280;27638;42.184;24.848;2022-12-07T04:06:42;99945.03;;;9.33;84.93
41947;BME280;27638;42.184;24.848;2022-12-07T04:09:07;99941.97;;;9.38;84.52
41947;BME280;27638;42.184;24.848;2022-12-07T04:11:32;99950.06;;;9.26;84.48
41947;BME280;27638;42.184;24.848;2022-12-07T04:13:57;99944.47;;;9.12;84.68
41947;BME280;27638;42.184;24.848;2022-12-07T04:16:41;99940.31;;;9.09;84.23
41947;BME280;27638;42.184;24.848;2022-12-07T04:19:06;99939.63;;;9.07;84.65
41947;BME280;27638;42.184;24.848;2022-12-07T04:21:31;99945.19;;;9.04;84.95
41947;BME280;27638;42.184;24.848;2022-12-07T04:23:57;99955.63;;;9.06;85.83
41947;BME280;27638;42.184;24.848;2022-12-07T04:26:22;99944.91;;;9.07;85.63
41947;BME280;27638;42.184;24.848;2022-12-07T04:28:47;99949.34;;;9.07;85.79
41947;BME280;27638;42.184;24.848;2022-12-07T04:31:12;99940.22;;;9.01;86.30
41947;BME280;27638;42.184;24.848;2022-12-07T04:33:38;99940.44;;;9.08;85.63
41947;BME280;27638;42.184;24.848;2022-12-07T04:36:03;99939.78;;;9.06;84.50
41947;BME280;27638;42.184;24.848;2022-12-07T04:38:28;99949.41;;;8.97;84.96
41947;BME280;27638;42.184;24.848;2022-12-07T04:40:54;99948.56;;;8.96;85.38
41947;BME280;27638;42.184;24.848;2022-12-07T04:43:19;99938.00;;;8.96;85.10
41947;BME280;27638;42.184;24.848;2022-12-07T04:45:47;99945.25;;;8.94;84.80
41947;BME280;27638;42.184;24.848;2022-12-07T04:48:13;99946.91;;;8.95;85.14
41947;BME280;27638;42.184;24.848;2022-12-07T04:50:38;99941.94;;;8.92;84.84
41947;BME280;27638;42.184;24.848;2022-12-07T04:53:04;99947.06;;;8.94;85.32
41947;BME280;27638;42.184;24.848;2022-12-07T04:55:29;99944.28;;;8.95;84.46
41947;BME280;27638;42.184;24.848;2022-12-07T04:57:54;99938.00;;;8.96;84.64
41947;BME280;27638;42.184;24.848;2022-12-07T05:00:19;99949.78;;;9.02;84.50
41947;BME280;27638;42.184;24.848;2022-12-07T05:02:45;99953.03;;;8.96;84.77
41947;BME280;27638;42.184;24.848;2022-12-07T05:05:10;99955.81;;;8.94;84.80
41947;BME280;27638;42.184;24.848;2022-12-07T05:07:35;99949.56;;;8.95;84.88
41947;BME280;27638;42.184;24.848;2022-12-07T05:10:14;99954.72;;;8.87;84.61
41947;BME280;27638;42.184;24.848;2022-12-07T05:12:39;99954.19;;;8.84;84.58
41947;BME280;27638;42.184;24.848;2022-12-07T05:15:04;99950.28;;;8.88;84.51
41947;BME280;27638;42.184;24.848;2022-12-07T05:17:30;99946.66;;;8.89;84.81
41947;BME280;27638;42.184;24.848;2022-12-07T05:19:55;99956.25;;;8.90;83.98
41947;BME280;27638;42.184;24.848;2022-12-07T05:22:20;99951.69;;;8.82;84.11
41947;BME280;27638;42.184;24.848;2022-12-07T05:24:46;99951.44;;;8.76;83.98
41947;BME280;27638;42.184;24.848;2022-12-07T05:27:11;99955.22;;;8.73;83.55
41947;BME280;27638;42.184;24.848;2022-12-07T05:29:37;99949.81;;;8.65;83.46
41947;BME280;27638;42.184;24.848;2022-12-07T05:32:02;99949.44;;;8.60;84.24
41947;BME280;27638;42.184;24.848;2022-12-07T05:34:27;99951.22;;;8.59;85.49
41947;BME280;27638;42.184;24.848;2022-12-07T05:36:53;99953.16;;;8.67;84.83
41947;BME280;27638;42.184;24.848;2022-12-07T05:39:18;99954.53;;;8.71;84.55
41947;BME280;27638;42.184;24.848;2022-12-07T05:41:43;99954.28;;;8.64;85.17
41947;BME280;27638;42.184;24.848;2022-12-07T05:44:27;99967.59;;;8.73;85.10
41947;BME280;27638;42.184;24.848;2022-12-07T05:46:52;99958.53;;;8.75;85.07
41947;BME280;27638;42.184;24.848;2022-12-07T05:49:17;99957.31;;;8.70;85.29
41947;BME280;27638;42.184;24.848;2022-12-07T05:51:43;99951.34;;;8.68;84.93
41947;BME280;27638;42.184;24.848;2022-12-07T05:54:08;99950.38;;;8.69;84.50
41947;BME280;27638;42.184;24.848;2022-12-07T05:56:33;99952.72;;;8.72;84.10
41947;BME280;27638;42.184;24.848;2022-12-07T05:58:59;99952.88;;;8.70;83.86
41947;BME280;27638;42.184;24.848;2022-12-07T06:01:43;99964.31;;;8.51;84.55
41947;BME280;27638;42.184;24.848;2022-12-07T06:04:08;99960.44;;;8.46;86.24
41947;BME280;27638;42.184;24.848;2022-12-07T06:06:33;99961.53;;;8.53;86.05
41947;BME280;27638;42.184;24.848;2022-12-07T06:08:59;99955.28;;;8.54;86.12
41947;BME280;27638;42.184;24.848;2022-12-07T06:11:24;99957.78;;;8.55;85.79
41947;BME280;27638;42.184;24.848;2022-12-07T06:14:08;99964.00;;;8.64;85.57
41947;BME280;27638;42.184;24.848;2022-12-07T06:16:33;99963.28;;;8.72;85.90
41947;BME280;27638;42.184;24.848;2022-12-07T06:18:58;99963.00;;;8.75;86.08
41947;BME280;27638;42.184;24.848;2022-12-07T06:21:24;99964.59;;;8.85;85.79
41947;BME280;27638;42.184;24.848;2022-12-07T06:23:51;99974.97;;;8.96;85.04
41947;BME280;27638;42.184;24.848;2022-12-07T06:26:16;99971.00;;;8.83;85.74
41947;BME280;27638;42.184;24.848;2022-12-07T06:28:42;99970.03;;;8.84;86.15
41947;BME280;27638;42.184;24.848;2022-12-07T06:31:07;99966.84;;;8.80;86.35
41947;BME280;27638;42.184;24.848;2022-12-07T06:33:33;99966.16;;;8.78;86.22
41947;BME280;27638;42.184;24.848;2022-12-07T06:35:58;99971.13;;;8.91;86.51
41947;BME280;27638;42.184;24.848;2022-12-07T06:38:23;99972.34;;;8.96;86.45
41947;BME280;27638;42.184;24.848;2022-12-07T06:40:49;99972.50;;;8.95;86.34
41947;BME280;27638;42.184;24.848;2022-12-07T06:43:15;99979.59;;;8.94;86.69
41947;BME280;27638;42.184;24.848;2022-12-07T06:45:40;99974.69;;;9.00;86.63
41947;BME280;27638;42.184;24.848;2022-12-07T06:48:06;99981.63;;;9.01;85.83
41947;BME280;27638;42.184;24.848;2022-12-07T06:50:31;99982.75;;;8.98;86.04
41947;BME280;27638;42.184;24.848;2022-12-07T06:52:56;99984.28;;;9.01;85.98
41947;BME280;27638;42.184;24.848;2022-12-07T06:55:21;99976.47;;;9.09;85.87
41947;BME280;27638;42.184;24.848;2022-12-07T06:57:47;99979.94;;;9.09;85.70
41947;BME280;27638;42.184;24.848;2022-12-07T07:00:12;99970.44;;;9.16;85.36
41947;BME280;27638;42.184;24.848;2022-12-07T07:02:38;99974.78;;;9.08;85.87
41947;BME280;27638;42.184;24.848;2022-12-07T07:05:03;99972.19;;;9.25;86.04
41947;BME280;27638;42.184;24.848;2022-12-07T07:07:28;99960.59;;;9.36;85.88
41947;BME280;27638;42.184;24.848;2022-12-07T07:09:54;99971.13;;;9.46;85.40
41947;BME280;27638;42.184;24.848;2022-12-07T07:12:19;99975.44;;;9.47;85.50
41947;BME280;27638;42.184;24.848;2022-12-07T07:14:44;99975.38;;;9.56;85.09
41947;BME280;27638;42.184;24.848;2022-12-07T07:17:10;99957.84;;;9.55;85.40
41947;BME280;27638;42.184;24.848;2022-12-07T07:19:35;99964.63;;;9.76;84.51
41947;BME280;27638;42.184;24.848;2022-12-07T07:22:02;99970.59;;;9.78;84.27
41947;BME280;27638;42.184;24.848;2022-12-07T07:24:27;99972.78;;;9.82;84.21
41947;BME280;27638;42.184;24.848;2022-12-07T07:26:52;99972.78;;;9.65;84.87
41947;BME280;27638;42.184;24.848;2022-12-07T07:29:18;99972.72;;;9.56;85.77
41947;BME280;27638;42.184;24.848;2022-12-07T07:31:43;99972.13;;;9.63;85.60
41947;BME280;27638;42.184;24.848;2022-12-07T07:34:08;99975.38;;;9.74;85.47
41947;BME280;27638;42.184;24.848;2022-12-07T07:36:34;99970.22;;;9.73;85.25
41947;BME280;27638;42.184;24.848;2022-12-07T07:38:59;99973.69;;;9.91;84.47
41947;BME280;27638;42.184;24.848;2022-12-07T07:41:24;99983.44;;;10.08;84.12
41947;BME280;27638;42.184;24.848;2022-12-07T07:43:49;99981.41;;;10.02;84.57
41947;BME280;27638;42.184;24.848;2022-12-07T07:46:15;99986.22;;;10.07;83.79
41947;BME280;27638;42.184;24.848;2022-12-07T07:48:40;99983.28;;;10.10;83.24
41947;BME280;27638;42.184;24.848;2022-12-07T07:51:06;99985.50;;;9.97;84.42
41947;BME280;27638;42.184;24.848;2022-12-07T07:53:32;99986.78;;;9.92;85.48
41947;BME280;27638;42.184;24.848;2022-12-07T07:55:57;99985.03;;;9.83;86.12
41947;BME280;27638;42.184;24.848;2022-12-07T07:58:23;99983.06;;;9.85;85.83
41947;BME280;27638;42.184;24.848;2022-12-07T08:00:48;99987.75;;;10.09;85.63
41947;BME280;27638;42.184;24.848;2022-12-07T08:03:14;99988.13;;;10.32;85.34
41947;BME280;27638;42.184;24.848;2022-12-07T08:05:39;100002.47;;;10.47;84.64
41947;BME280;27638;42.184;24.848;2022-12-07T08:08:04;99999.22;;;10.53;84.59
41947;BME280;27638;42.184;24.848;2022-12-07T08:10:30;99992.81;;;10.03;86.03
41947;BME280;27638;42.184;24.848;2022-12-07T08:12:57;99988.72;;;10.26;84.82
41947;BME280;27638;42.184;24.848;2022-12-07T08:15:39;99992.88;;;10.29;85.16
41947;BME280;27638;42.184;24.848;2022-12-07T08:18:05;99984.78;;;10.48;85.36
41947;BME280;27638;42.184;24.848;2022-12-07T08:20:31;99997.97;;;10.66;85.52
41947;BME280;27638;42.184;24.848;2022-12-07T08:22:56;99996.25;;;10.82;84.80
41947;BME280;27638;42.184;24.848;2022-12-07T08:25:22;99996.13;;;10.92;83.17
41947;BME280;27638;42.184;24.848;2022-12-07T08:27:48;99985.88;;;10.63;84.44
41947;BME280;27638;42.184;24.848;2022-12-07T08:30:13;99987.88;;;10.95;83.33
41947;BME280;27638;42.184;24.848;2022-12-07T08:32:38;99991.84;;;10.99;83.37
41947;BME280;27638;42.184;24.848;2022-12-07T08:35:04;99989.56;;;11.04;83.19
41947;BME280;27638;42.184;24.848;2022-12-07T08:37:29;99991.72;;;11.09;82.89
41947;BME280;27638;42.184;24.848;2022-12-07T08:39:54;99984.59;;;11.09;83.29
41947;BME280;27638;42.184;24.848;2022-12-07T08:42:20;99985.19;;;11.29;82.52
41947;BME280;27638;42.184;24.848;2022-12-07T08:44:47;99985.19;;;11.29;83.42
41947;BME280;27638;42.184;24.848;2022-12-07T08:47:13;99982.03;;;11.26;83.05
41947;BME280;27638;42.184;24.848;2022-12-07T08:49:39;99970.28;;;11.36;82.87
41947;BME280;27638;42.184;24.848;2022-12-07T08:52:06;99969.41;;;11.19;85.32
41947;BME280;27638;42.184;24.848;2022-12-07T08:54:32;99964.41;;;11.50;83.36
41947;BME280;27638;42.184;24.848;2022-12-07T08:56:58;99963.44;;;11.68;82.93
41947;BME280;27638;42.184;24.848;2022-12-07T08:59:24;99954.81;;;11.74;82.38
41947;BME280;27638;42.184;24.848;2022-12-07T09:01:49;99945.34;;;11.71;82.56
41947;BME280;27638;42.184;24.848;2022-12-07T09:04:14;99947.38;;;11.94;81.90
41947;BME280;27638;42.184;24.848;2022-12-07T09:06:40;99949.38;;;12.16;81.18
41947;BME280;27638;42.184;24.848;2022-12-07T09:09:06;99942.41;;;12.07;82.22
41947;BME280;27638;42.184;24.848;2022-12-07T09:11:31;99946.38;;;12.35;81.00
41947;BME280;27638;42.184;24.848;2022-12-07T09:13:57;99936.75;;;12.51;80.46
41947;BME280;27638;42.184;24.848;2022-12-07T09:16:22;99940.41;;;12.25;80.26
41947;BME280;27638;42.184;24.848;2022-12-07T09:18:47;99930.97;;;12.14;80.68
41947;BME280;27638;42.184;24.848;2022-12-07T09:21:13;99929.78;;;12.33;79.13
41947;BME280;27638;42.184;24.848;2022-12-07T09:23:38;99918.66;;;12.38;79.19
41947;BME280;27638;42.184;24.848;2022-12-07T09:26:04;99915.50;;;12.51;79.11
41947;BME280;27638;42.184;24.848;2022-12-07T09:28:32;99917.81;;;12.54;78.59
41947;BME280;27638;42.184;24.848;2022-12-07T09:30:57;99907.88;;;12.31;79.27
41947;BME280;27638;42.184;24.848;2022-12-07T09:33:22;99910.34;;;12.33;79.51
41947;BME280;27638;42.184;24.848;2022-12-07T09:35:48;99905.22;;;12.31;79.80
41947;BME280;27638;42.184;24.848;2022-12-07T09:38:14;99897.72;;;12.51;79.49
41947;BME280;27638;42.184;24.848;2022-12-07T09:40:39;99889.75;;;12.43;81.15
41947;BME280;27638;42.184;24.848;2022-12-07T09:43:08;99894.94;;;12.20;82.02
41947;BME280;27638;42.184;24.848;2022-12-07T09:45:36;99897.28;;;12.07;82.74
41947;BME280;27638;42.184;24.848;2022-12-07T09:48:02;99890.97;;;12.16;80.56
41947;BME280;27638;42.184;24.848;2022-12-07T09:50:28;99891.81;;;12.17;79.38
41947;BME280;27638;42.184;24.848;2022-12-07T09:52:55;99881.53;;;12.13;80.25
41947;BME280;27638;42.184;24.848;2022-12-07T09:55:27;99875.97;;;12.39;79.44
41947;BME280;27638;42.184;24.848;2022-12-07T09:57:53;99876.47;;;12.51;79.79
41947;BME280;27638;42.184;24.848;2022-12-07T10:00:19;99874.41;;;12.69;77.77
41947;BME280;27638;42.184;24.848;2022-12-07T10:02:47;99872.50;;;12.39;78.23
41947;BME280;27638;42.184;24.848;2022-12-07T10:05:22;99874.34;;;12.30;79.65
41947;BME280;27638;42.184;24.848;2022-12-07T10:07:49;99871.72;;;12.14;79.46
41947;BME280;27638;42.184;24.848;2022-12-07T10:10:15;99876.06;;;12.07;79.30
41947;BME280;27638;42.184;24.848;2022-12-07T10:12:53;99872.75;;;11.97;80.54
41947;BME280;27638;42.184;24.848;2022-12-07T10:15:18;99868.09;;;12.07;80.09
41947;BME280;27638;42.184;24.848;2022-12-07T10:17:47;99864.78;;;12.13;79.71
41947;BME280;27638;42.184;24.848;2022-12-07T10:25:19;99855.84;;;11.98;78.01
41947;BME280;27638;42.184;24.848;2022-12-07T10:27:57;99848.19;;;12.03;78.85
41947;BME280;27638;42.184;24.848;2022-12-07T10:30:22;99837.53;;;12.19;78.98
41947;BME280;27638;42.184;24.848;2022-12-07T10:32:47;99835.47;;;12.45;77.78
41947;BME280;27638;42.184;24.848;2022-12-07T10:35:26;99835.63;;;12.44;77.18
41947;BME280;27638;42.184;24.848;2022-12-07T10:37:53;99830.66;;;12.49;77.36
41947;BME280;27638;42.184;24.848;2022-12-07T10:40:34;99828.00;;;12.41;78.75
41947;BME280;27638;42.184;24.848;2022-12-07T10:43:18;99828.16;;;12.47;78.30
41947;BME280;27638;42.184;24.848;2022-12-07T10:48:21;99829.59;;;12.66;78.50
41947;BME280;27638;42.184;24.848;2022-12-07T10:50:59;99835.28;;;12.55;76.19
41947;BME280;27638;42.184;24.848;2022-12-07T10:58:59;99834.50;;;12.38;77.17
41947;BME280;27638;42.184;24.848;2022-12-07T11:01:32;99830.31;;;12.44;76.85
41947;BME280;27638;42.184;24.848;2022-12-07T11:06:33;99826.19;;;12.81;76.41
41947;BME280;27638;42.184;24.848;2022-12-07T11:14:28;99813.03;;;12.87;75.61
41947;BME280;27638;42.184;24.848;2022-12-07T11:19:44;99802.50;;;12.71;75.99
41947;BME280;27638;42.184;24.848;2022-12-07T11:27:38;99796.13;;;12.02;78.10
41947;BME280;27638;42.184;24.848;2022-12-07T11:35:36;99780.53;;;12.46;76.53
41947;BME280;27638;42.184;24.848;2022-12-07T11:38:08;99779.44;;;12.32;76.23
41947;BME280;27638;42.184;24.848;2022-12-07T11:40:35;99777.38;;;12.42;76.71
41947;BME280;27638;42.184;24.848;2022-12-07T11:45:52;99774.56;;;12.44;77.44
41947;BME280;27638;42.184;24.848;2022-12-07T11:48:30;99765.56;;;12.14;78.89
41947;BME280;27638;42.184;24.848;2022-12-07T11:50:59;99774.31;;;12.23;78.16
41947;BME280;27638;42.184;24.848;2022-12-07T11:53:33;99761.09;;;12.45;77.06
41947;BME280;27638;42.184;24.848;2022-12-07T11:56:03;99768.50;;;12.66;77.01
41947;BME280;27638;42.184;24.848;2022-12-07T11:59:02;99761.06;;;12.85;77.27
41947;BME280;27638;42.184;24.848;2022-12-07T12:03:50;99757.38;;;13.17;74.78
41947;BME280;27638;42.184;24.848;2022-12-07T12:06:16;99753.72;;;13.18;74.55
41947;BME280;27638;42.184;24.848;2022-12-07T12:08:55;99755.06;;;13.14;75.86
41947;BME280;27638;42.184;24.848;2022-12-07T12:11:38;99746.31;;;13.28;75.41
41947;BME280;27638;42.184;24.848;2022-12-07T12:21:32;99734.53;;;13.45;75.44
41947;BME280;27638;42.184;24.848;2022-12-07T12:26:31;99747.88;;;13.60;75.10
41947;BME280;27638;42.184;24.848;2022-12-07T12:33:52;99738.63;;;13.70;74.83
41947;BME280;27638;42.184;24.848;2022-12-07T12:43:58;99732.31;;;13.71;74.14
41947;BME280;27638;42.184;24.848;2022-12-07T12:47:37;99724.59;;;13.77;73.46
41947;BME280;27638;42.184;24.848;2022-12-07T12:51:42;99719.56;;;13.82;72.85
41947;BME280;27638;42.184;24.848;2022-12-07T12:54:12;99721.22;;;13.83;73.63
41947;BME280;27638;42.184;24.848;2022-12-07T12:59:31;99719.66;;;13.88;72.03
41947;BME280;27638;42.184;24.848;2022-12-07T13:05:00;99721.13;;;13.38;73.99
41947;BME280;27638;42.184;24.848;2022-12-07T13:15:36;99705.72;;;13.11;76.24
41947;BME280;27638;42.184;24.848;2022-12-07T13:18:48;99700.66;;;13.01;76.04
41947;BME280;27638;42.184;24.848;2022-12-07T13:20:52;99700.47;;;12.57;77.19
41947;BME280;27638;42.184;24.848;2022-12-07T13:23:19;99699.72;;;12.71;76.29
41947;BME280;27638;42.184;24.848;2022-12-07T13:25:55;99711.34;;;12.70;75.81
41947;BME280;27638;42.184;24.848;2022-12-07T13:28:25;99711.66;;;12.75;75.48
41947;BME280;27638;42.184;24.848;2022-12-07T13:31:04;99707.56;;;12.65;76.37
41947;BME280;27638;42.184;24.848;2022-12-07T13:33:35;99709.34;;;12.72;76.12
41947;BME280;27638;42.184;24.848;2022-12-07T13:36:00;99710.81;;;12.75;77.10
41947;BME280;27638;42.184;24.848;2022-12-07T13:43:52;99714.25;;;12.84;76.36
41947;BME280;27638;42.184;24.848;2022-12-07T13:46:18;99715.38;;;12.89;77.25
41947;BME280;27638;42.184;24.848;2022-12-07T13:48:46;99718.44;;;13.01;77.60
41947;BME280;27638;42.184;24.848;2022-12-07T13:51:45;99718.00;;;13.12;75.99
41947;BME280;27638;42.184;24.848;2022-12-07T13:54:10;99710.56;;;13.30;76.55
41947;BME280;27638;42.184;24.848;2022-12-07T13:56:36;99711.09;;;13.26;77.23
41947;BME280;27638;42.184;24.848;2022-12-07T13:59:02;99711.22;;;13.32;75.51
41947;BME280;27638;42.184;24.848;2022-12-07T14:01:28;99717.19;;;13.34;75.72
41947;BME280;27638;42.184;24.848;2022-12-07T14:03:55;99718.47;;;13.38;77.33
41947;BME280;27638;42.184;24.848;2022-12-07T14:06:22;99717.00;;;13.36;75.00
41947;BME280;27638;42.184;24.848;2022-12-07T14:08:50;99717.19;;;13.34;76.25
41947;BME280;27638;42.184;24.848;2022-12-07T14:11:17;99718.47;;;13.38;77.25
41947;BME280;27638;42.184;24.848;2022-12-07T14:18:53;99718.53;;;13.53;75.64
41947;BME280;27638;42.184;24.848;2022-12-07T14:21:20;99716.34;;;13.34;76.60
41947;BME280;27638;42.184;24.848;2022-12-07T14:24:02;99721.38;;;13.29;76.29
41947;BME280;27638;42.184;24.848;2022-12-07T14:26:27;99715.06;;;13.30;77.53
41947;BME280;27638;42.184;24.848;2022-12-07T14:28:52;99716.91;;;13.29;77.98
41947;BME280;27638;42.184;24.848;2022-12-07T14:31:20;99710.09;;;13.27;78.28
41947;BME280;27638;42.184;24.848;2022-12-07T14:33:46;99718.97;;;13.19;78.42
41947;BME280;27638;42.184;24.848;2022-12-07T14:36:12;99711.69;;;13.13;78.45
41947;BME280;27638;42.184;24.848;2022-12-07T14:38:38;99713.69;;;13.11;78.90
41947;BME280;27638;42.184;24.848;2022-12-07T14:41:03;99718.38;;;13.09;78.64
41947;BME280;27638;42.184;24.848;2022-12-07T14:43:47;99714.59;;;13.03;79.11
41947;BME280;27638;42.184;24.848;2022-12-07T14:46:13;99726.75;;;12.98;79.93
41947;BME280;27638;42.184;24.848;2022-12-07T14:48:38;99718.97;;;12.96;79.33
41947;BME280;27638;42.184;24.848;2022-12-07T14:51:03;99717.13;;;12.97;78.90
41947;BME280;27638;42.184;24.848;2022-12-07T14:53:31;99714.31;;;12.98;79.96